Terminal Aerodrome Forecast
Issued by NWS Albany, NY

Home | Current Version | Previous Version | Text Only | Print | Product List | Glossary On
Versions: 1 2 3 4 5 6 7 8 9 10 11 12 13 14 15 16 17 18 19
000
FTUS41 KALY 302300
TAFGFL
TAF
KGFL 302337Z 3100/3124 19007KT P6SM SCT045
     FM310600 19004KT 5SM BR VCSH SCT015 OVC020
     FM311500 19006KT P6SM VCSH SCT015 OVC025
     FM311800 19006KT 4SM -RA BR OVC030
     FM312200 21005KT 2SM -RA BR OVC025=

USA.gov is the U.S. government's official web portal to all federal, state and local government web resources and services.